Time;durP1;ratioP1;P1;durP2;ratioP2;P2;SDS_P1;SDS_P2;PMS_P1;PMS_P2;Temp;Humidity;BMP_temperature;BMP_pressure;BME280_temperature;BME280_humidity;BME280_pressure;Samples;Min_cycle;Max_cycle;Signal;HPM_P1;HPM_P2
2023/10/08 00:02:11;;;;;;;5.53;5.33;;;22.40;98.80;;;;;;5016990;28;20452;-71
2023/10/08 00:04:38;;;;;;;6.20;5.83;;;22.40;98.80;;;;;;5023665;28;20462;-71
2023/10/08 00:07:07;;;;;;;5.50;5.30;;;22.40;98.90;;;;;;5024542;28;20535;-70
2023/10/08 00:09:36;;;;;;;5.63;5.33;;;22.40;98.90;;;;;;5021752;28;20515;-70
2023/10/08 00:12:04;;;;;;;6.40;6.17;;;22.40;98.90;;;;;;5021216;28;20954;-69
2023/10/08 00:14:32;;;;;;;6.70;6.50;;;22.40;98.90;;;;;;5022526;28;20495;-70
2023/10/08 00:17:00;;;;;;;5.80;5.60;;;22.40;98.90;;;;;;5024404;28;21007;-69
2023/10/08 00:19:33;;;;;;;5.30;5.10;;;22.40;99.00;;;;;;5022524;28;20480;-70
2023/10/08 00:22:05;;;;;;;5.97;5.67;;;22.40;99.00;;;;;;5021084;28;20948;-70
2023/10/08 00:24:33;;;;;;;6.07;5.87;;;22.40;99.00;;;;;;5022481;28;20469;-70
2023/10/08 00:27:00;;;;;;;5.80;5.60;;;22.30;98.90;;;;;;5024286;28;20437;-70
2023/10/08 00:29:27;;;;;;;6.13;5.73;;;22.30;99.00;;;;;;5022356;28;20452;-70
2023/10/08 00:31:56;;;;;;;5.80;5.63;;;22.30;99.00;;;;;;5020967;28;20473;-70
2023/10/08 00:34:25;;;;;;;6.07;5.87;;;22.30;99.00;;;;;;5020895;28;20556;-70
2023/10/08 00:36:53;;;;;;;5.40;5.20;;;22.30;99.00;;;;;;5024069;28;20534;-70
2023/10/08 00:39:23;;;;;;;5.53;5.30;;;22.30;99.00;;;;;;5023270;28;20473;-69
2023/10/08 00:41:54;;;;;;;5.87;5.67;;;22.30;99.00;;;;;;5020694;28;20477;-70
2023/10/08 00:44:23;;;;;;;5.47;5.27;;;22.30;99.10;;;;;;5020337;28;20470;-70
2023/10/08 00:46:50;;;;;;;5.77;5.47;;;22.30;99.10;;;;;;5023962;28;20433;-70
2023/10/08 00:49:25;;;;;;;5.57;5.37;;;22.30;99.10;;;;;;5023304;28;20464;-70
2023/10/08 00:52:18;;;;;;;5.50;5.40;;;22.30;99.10;;;;;;5012061;28;20529;-70
2023/10/08 00:54:53;;;;;;;6.07;5.77;;;22.20;99.00;;;;;;5023452;28;20472;-70
2023/10/08 00:57:23;;;;;;;5.63;5.33;;;22.30;99.10;;;;;;5023493;28;20579;-70
2023/10/08 00:59:53;;;;;;;5.87;5.67;;;22.20;99.10;;;;;;5019879;28;20525;-70
2023/10/08 01:02:24;;;;;;;5.57;5.30;;;22.20;99.10;;;;;;5019741;28;20450;-70
2023/10/08 01:04:51;;;;;;;5.93;5.63;;;22.20;99.10;;;;;;5020120;28;20465;-70
2023/10/08 01:07:19;;;;;;;5.80;5.57;;;22.20;99.10;;;;;;5024708;28;20488;-70
2023/10/08 01:09:51;;;;;;;6.50;6.10;;;22.20;99.10;;;;;;5014661;28;20543;-70
2023/10/08 01:12:21;;;;;;;5.80;5.50;;;22.20;99.10;;;;;;5020093;28;20532;-70
2023/10/08 01:14:49;;;;;;;5.97;5.67;;;22.20;99.20;;;;;;5012054;28;20825;-70
2023/10/08 01:17:19;;;;;;;5.43;5.20;;;22.20;99.20;;;;;;5017780;28;20543;-70
2023/10/08 01:19:54;;;;;;;5.27;5.07;;;22.20;99.20;;;;;;5011937;28;20453;-70
2023/10/08 01:22:27;;;;;;;6.27;5.97;;;22.20;99.20;;;;;;5019982;28;20943;-69
2023/10/08 01:24:54;;;;;;;6.67;6.30;;;22.20;99.20;;;;;;5023312;28;20464;-70
2023/10/08 01:27:21;;;;;;;6.37;6.23;;;22.20;99.20;;;;;;5022814;28;20484;-70
2023/10/08 01:29:49;;;;;;;6.50;6.20;;;22.20;99.20;;;;;;5020008;28;20481;-70
2023/10/08 01:32:17;;;;;;;6.10;5.90;;;22.20;99.30;;;;;;5019887;28;20816;-70
2023/10/08 01:34:46;;;;;;;6.10;5.70;;;22.20;99.30;;;;;;5018370;28;20465;-70
2023/10/08 01:37:14;;;;;;;5.80;5.60;;;22.20;99.30;;;;;;5015277;28;20580;-70
2023/10/08 01:39:42;;;;;;;5.90;5.70;;;22.20;99.30;;;;;;5022303;28;20446;-70
2023/10/08 01:42:16;;;;;;;6.30;6.00;;;22.10;99.30;;;;;;5023103;28;20447;-70
2023/10/08 01:44:45;;;;;;;6.57;6.37;;;22.10;99.30;;;;;;5061390;22;20500;-65
2023/10/08 01:47:12;;;;;;;5.73;5.53;;;22.10;99.30;;;;;;5030767;28;20445;-65
2023/10/08 01:49:40;;;;;;;6.10;5.90;;;22.10;99.30;;;;;;5031234;28;20441;-65
2023/10/08 01:52:13;;;;;;;5.60;5.50;;;22.10;99.30;;;;;;5031121;28;20453;-65
2023/10/08 01:54:40;;;;;;;5.40;5.20;;;22.10;99.30;;;;;;5030343;28;20495;-67
2023/10/08 01:57:09;;;;;;;5.67;5.47;;;22.10;99.30;;;;;;5027127;28;20473;-67
2023/10/08 01:59:37;;;;;;;5.80;5.60;;;22.10;99.30;;;;;;5030131;28;20554;-67
2023/10/08 02:02:05;;;;;;;6.73;6.40;;;22.10;99.30;;;;;;5030394;28;20522;-67
2023/10/08 02:04:35;;;;;;;6.60;6.40;;;22.10;99.30;;;;;;5030073;28;20473;-67
2023/10/08 02:07:03;;;;;;;5.63;5.50;;;22.10;99.40;;;;;;5031285;28;20433;-67
2023/10/08 02:09:31;;;;;;;5.40;5.23;;;22.10;99.40;;;;;;5030970;28;20449;-67
2023/10/08 02:11:59;;;;;;;5.80;5.60;;;22.10;99.30;;;;;;5030361;28;20453;-67
2023/10/08 02:14:31;;;;;;;6.57;6.27;;;22.10;99.40;;;;;;5031920;28;20496;-67
2023/10/08 02:17:01;;;;;;;6.17;5.97;;;22.10;99.40;;;;;;5034944;28;20487;-67
2023/10/08 02:19:28;;;;;;;5.70;5.60;;;22.10;99.50;;;;;;5034777;28;20449;-67
2023/10/08 02:21:55;;;;;;;5.87;5.53;;;22.10;99.40;;;;;;5034060;28;20885;-67
2023/10/08 02:24:23;;;;;;;5.77;5.57;;;22.10;99.50;;;;;;5034549;28;20501;-67
2023/10/08 02:26:52;;;;;;;5.40;5.30;;;22.00;99.40;;;;;;5026797;28;20791;-67
2023/10/08 02:29:19;;;;;;;6.03;5.83;;;22.10;99.50;;;;;;5034649;28;20454;-67
2023/10/08 02:31:47;;;;;;;5.50;5.37;;;22.10;99.50;;;;;;5033866;28;20506;-67
2023/10/08 02:34:15;;;;;;;6.00;5.80;;;22.10;99.50;;;;;;5034313;28;20472;-67
2023/10/08 02:36:42;;;;;;;5.50;5.30;;;22.10;99.50;;;;;;5034365;28;20476;-67
2023/10/08 02:39:17;;;;;;;5.70;5.50;;;22.10;99.50;;;;;;5034483;28;20473;-67
2023/10/08 02:41:46;;;;;;;5.20;5.10;;;22.10;99.40;;;;;;5033579;28;20448;-67
2023/10/08 02:44:13;;;;;;;5.90;5.70;;;22.10;99.50;;;;;;5033987;28;20445;-67
2023/10/08 02:46:42;;;;;;;5.80;5.60;;;22.10;99.50;;;;;;5034454;28;20437;-67
2023/10/08 02:49:11;;;;;;;5.90;5.70;;;22.00;99.40;;;;;;5034280;28;20532;-67
2023/10/08 02:51:40;;;;;;;5.80;5.60;;;22.00;99.50;;;;;;5033499;28;20835;-67
2023/10/08 02:54:16;;;;;;;5.93;5.70;;;22.00;99.50;;;;;;5034075;28;20528;-67
2023/10/08 02:56:45;;;;;;;5.80;5.60;;;22.00;99.50;;;;;;5034088;28;20522;-67
2023/10/08 02:59:13;;;;;;;5.60;5.40;;;22.00;99.50;;;;;;5034040;28;21003;-67
2023/10/08 03:01:41;;;;;;;6.00;5.80;;;22.00;99.50;;;;;;5033459;28;20449;-67
2023/10/08 03:04:17;;;;;;;6.27;6.07;;;22.00;99.50;;;;;;5033927;28;20820;-67
2023/10/08 03:06:45;;;;;;;5.50;5.30;;;22.00;99.50;;;;;;5033930;28;20455;-67
2023/10/08 03:09:13;;;;;;;5.90;5.60;;;22.00;99.50;;;;;;5033974;28;20443;-67
2023/10/08 03:11:46;;;;;;;5.53;5.23;;;22.00;99.50;;;;;;5031402;28;20449;-67
2023/10/08 03:14:21;;;;;;;5.60;5.40;;;22.00;99.50;;;;;;5033690;28;20949;-67
2023/10/08 03:16:49;;;;;;;5.53;5.30;;;22.00;99.50;;;;;;5033676;28;20980;-67
2023/10/08 03:19:19;;;;;;;5.37;5.20;;;22.00;99.50;;;;;;5033775;28;20449;-67
2023/10/08 03:21:50;;;;;;;5.97;5.67;;;22.00;99.50;;;;;;5028648;28;20461;-67
2023/10/08 03:27:11;;;;;;;5.70;5.60;;;22.00;99.50;;;;;;5017032;28;20433;-67
2023/10/08 03:29:41;;;;;;;6.17;5.87;;;22.00;99.50;;;;;;5033602;28;20499;-67
2023/10/08 03:32:13;;;;;;;5.73;5.53;;;22.00;99.50;;;;;;5028902;28;20459;-67
2023/10/08 03:34:46;;;;;;;5.43;5.23;;;22.00;99.50;;;;;;5033162;28;20500;-67
2023/10/08 03:37:19;;;;;;;5.80;5.60;;;22.00;99.50;;;;;;5033356;28;20476;-67
2023/10/08 03:40:00;;;;;;;5.83;5.63;;;22.00;99.50;;;;;;5032663;28;20536;-67
2023/10/08 03:42:33;;;;;;;5.33;5.13;;;22.00;99.50;;;;;;5033251;28;20459;-67
2023/10/08 03:45:09;;;;;;;5.60;5.50;;;21.90;99.50;;;;;;5033058;28;20515;-67
2023/10/08 03:47:37;;;;;;;5.23;5.03;;;22.00;99.60;;;;;;5033109;28;20510;-67
2023/10/08 03:50:09;;;;;;;5.73;5.53;;;22.00;99.50;;;;;;5030768;28;20532;-67
2023/10/08 03:52:38;;;;;;;5.67;5.47;;;22.00;99.50;;;;;;5030532;28;20445;-67
2023/10/08 03:55:20;;;;;;;5.23;5.13;;;22.00;99.50;;;;;;5032877;28;20622;-67
2023/10/08 03:57:56;;;;;;;5.93;5.73;;;22.00;99.50;;;;;;5032998;28;20851;-67
2023/10/08 04:00:29;;;;;;;5.67;5.47;;;21.90;99.50;;;;;;5030881;28;20456;-67
2023/10/08 04:03:00;;;;;;;5.70;5.40;;;21.90;99.50;;;;;;5032694;28;20955;-67
2023/10/08 04:05:40;;;;;;;5.57;5.37;;;22.00;99.50;;;;;;5032840;28;20470;-67
2023/10/08 04:08:17;;;;;;;6.03;5.83;;;21.90;99.50;;;;;;5026616;28;20793;-67
2023/10/08 04:13:30;;;;;;;5.50;5.33;;;22.00;99.50;;;;;;5032532;28;20974;-67
2023/10/08 04:15:57;;;;;;;6.87;6.57;;;21.90;99.50;;;;;;5032569;28;20468;-67
2023/10/08 04:18:24;;;;;;;6.10;5.90;;;21.90;99.40;;;;;;5031978;28;20492;-67
2023/10/08 04:21:04;;;;;;;5.70;5.60;;;21.90;99.50;;;;;;5032504;28;20476;-67
2023/10/08 04:23:31;;;;;;;6.50;6.30;;;21.90;99.50;;;;;;5032235;28;20886;-67
2023/10/08 04:25:58;;;;;;;6.23;6.03;;;21.90;99.40;;;;;;5032365;28;20472;-67
2023/10/08 04:28:28;;;;;;;6.10;5.90;;;21.90;99.40;;;;;;5025613;28;20445;-67
2023/10/08 04:31:00;;;;;;;5.97;5.67;;;22.00;99.50;;;;;;5024420;28;20499;-67
2023/10/08 04:33:31;;;;;;;6.23;5.97;;;21.90;99.40;;;;;;5032237;28;20456;-67
2023/10/08 04:36:01;;;;;;;5.90;5.70;;;21.90;99.40;;;;;;5024675;28;20828;-67
2023/10/08 04:38:30;;;;;;;6.13;5.93;;;21.90;99.40;;;;;;5019272;28;20500;-67
2023/10/08 04:41:02;;;;;;;6.53;6.33;;;21.90;99.40;;;;;;5023333;28;20893;-67
2023/10/08 04:43:30;;;;;;;6.20;6.00;;;21.90;99.40;;;;;;5032068;28;20503;-67
2023/10/08 04:45:58;;;;;;;6.37;6.17;;;21.90;99.40;;;;;;5024165;28;20576;-67
2023/10/08 04:48:26;;;;;;;6.10;5.90;;;21.90;99.40;;;;;;5031555;28;20879;-67
2023/10/08 04:50:59;;;;;;;5.97;5.77;;;21.90;99.40;;;;;;5031932;28;20445;-67
2023/10/08 04:53:32;;;;;;;6.47;6.27;;;21.90;99.40;;;;;;5031804;28;20801;-67
2023/10/08 04:56:05;;;;;;;5.93;5.83;;;21.90;99.40;;;;;;5024324;28;20461;-67
2023/10/08 04:58:36;;;;;;;6.30;6.10;;;21.90;99.40;;;;;;5031414;28;20473;-67
2023/10/08 05:04:23;;;;;;;6.20;6.00;;;21.90;99.40;;;;;;5130710;27;20634;-65
2023/10/08 05:07:16;;;;;;;5.70;5.50;;;21.90;99.40;;;;;;5097846;28;20470;-65
2023/10/08 05:09:52;;;;;;;7.00;6.80;;;21.90;99.40;;;;;;5099048;28;20439;-65
2023/10/08 05:12:37;;;;;;;5.70;5.50;;;21.90;99.40;;;;;;5100657;28;20448;-64
2023/10/08 05:15:33;;;;;;;6.80;6.50;;;21.90;99.40;;;;;;5100738;28;20892;-64
2023/10/08 05:18:13;;;;;;;6.53;6.33;;;21.90;99.40;;;;;;5101337;28;20854;-65
2023/10/08 05:20:44;;;;;;;6.37;6.17;;;21.90;99.40;;;;;;5099183;28;21082;-65
2023/10/08 05:23:42;;;;;;;6.13;5.93;;;21.90;99.50;;;;;;5109425;28;20473;-64
2023/10/08 05:26:09;;;;;;;6.13;5.93;;;21.90;99.50;;;;;;5102039;28;20456;-65
2023/10/08 05:28:46;;;;;;;6.73;6.53;;;21.80;99.40;;;;;;5099633;28;20463;-65
2023/10/08 05:31:36;;;;;;;6.33;6.03;;;21.80;99.40;;;;;;5097074;28;20446;-64
2023/10/08 05:34:17;;;;;;;6.50;6.30;;;21.90;99.50;;;;;;5109511;28;20827;-64
2023/10/08 05:37:10;;;;;;;6.10;5.90;;;21.90;99.50;;;;;;5098248;28;20452;-64
2023/10/08 05:39:46;;;;;;;5.70;5.50;;;21.80;99.40;;;;;;5097501;28;20443;-65
2023/10/08 05:42:19;;;;;;;6.40;6.10;;;21.90;99.50;;;;;;5106463;28;20848;-64
2023/10/08 05:45:13;;;;;;;5.73;5.53;;;21.90;99.50;;;;;;5098344;28;20459;-64
2023/10/08 05:47:41;;;;;;;6.20;6.00;;;21.80;99.50;;;;;;5099714;28;20442;-64
2023/10/08 05:53:01;;;;;;;6.03;5.83;;;21.80;99.50;;;;;;5112764;27;20483;-65
2023/10/08 05:55:34;;;;;;;6.40;6.10;;;21.90;99.50;;;;;;5096350;28;20562;-64
2023/10/08 05:58:13;;;;;;;5.40;5.30;;;21.80;99.50;;;;;;5100455;28;20948;-65
2023/10/08 06:00:46;;;;;;;6.73;6.43;;;21.80;99.50;;;;;;5103112;28;20501;-65
2023/10/08 06:03:35;;;;;;;5.90;5.70;;;21.90;99.50;;;;;;5105880;28;20465;-65
2023/10/08 06:09:22;;;;;;;6.30;6.10;;;21.90;99.50;;;;;;5150653;27;20562;-64
2023/10/08 06:12:09;;;;;;;6.83;6.43;;;21.80;99.50;;;;;;5150146;27;20448;-64
2023/10/08 06:15:07;;;;;;;6.10;5.90;;;21.90;99.50;;;;;;5155882;27;20782;-65
2023/10/08 06:17:44;;;;;;;6.07;5.87;;;21.80;99.50;;;;;;5171072;27;20514;-64
2023/10/08 06:20:16;;;;;;;6.73;6.50;;;21.80;99.50;;;;;;5170919;27;20448;-69
2023/10/08 06:22:43;;;;;;;5.90;5.70;;;21.80;99.70;;;;;;5170610;27;20446;-68
2023/10/08 06:25:23;;;;;;;5.93;5.73;;;21.80;99.90;;;;;;5171045;27;20495;-69
2023/10/08 06:27:53;;;;;;;6.20;5.90;;;21.80;99.90;;;;;;5170796;27;20481;-68
2023/10/08 06:30:21;;;;;;;6.10;5.90;;;21.80;99.90;;;;;;5170860;27;20500;-68
2023/10/08 06:32:50;;;;;;;6.80;6.60;;;21.90;99.90;;;;;;5170658;27;20521;-68
2023/10/08 06:35:18;;;;;;;6.90;6.60;;;21.80;99.90;;;;;;5170669;27;20981;-68
2023/10/08 06:37:49;;;;;;;7.10;6.87;;;21.80;99.90;;;;;;5170523;27;20514;-68
2023/10/08 06:42:58;;;;;;;6.50;6.30;;;21.80;99.90;;;;;;5169295;27;20435;-68
2023/10/08 06:45:27;;;;;;;7.73;7.33;;;21.80;99.90;;;;;;5170515;27;20458;-68
2023/10/08 06:47:57;;;;;;;6.63;6.33;;;21.80;99.90;;;;;;5170326;27;20882;-68
2023/10/08 06:50:24;;;;;;;6.10;6.00;;;21.80;99.90;;;;;;5170227;27;20443;-69
2023/10/08 06:52:50;;;;;;;6.60;6.40;;;21.80;99.90;;;;;;5170339;27;20446;-68
2023/10/08 06:55:23;;;;;;;7.17;6.87;;;21.80;99.90;;;;;;5170329;27;20478;-69
2023/10/08 06:57:50;;;;;;;7.20;6.60;;;21.80;99.90;;;;;;5170336;27;20870;-69
2023/10/08 07:00:37;;;;;;;7.10;6.60;;;21.80;99.90;;;;;;5170143;27;20829;-68
2023/10/08 07:03:05;;;;;;;6.83;6.43;;;21.80;99.90;;;;;;5162149;27;20443;-68
2023/10/08 07:05:36;;;;;;;6.67;6.27;;;21.80;99.90;;;;;;5170033;27;20546;-69
2023/10/08 07:08:06;;;;;;;8.07;7.27;;;21.80;99.90;;;;;;5161905;27;20498;-67
2023/10/08 07:10:35;;;;;;;7.47;6.97;;;21.80;99.90;;;;;;5169701;27;20949;-68
2023/10/08 07:13:03;;;;;;;7.83;7.33;;;21.80;99.90;;;;;;5169589;27;20478;-68
2023/10/08 07:15:31;;;;;;;6.97;6.67;;;21.80;99.90;;;;;;5169876;27;20835;-68
2023/10/08 07:18:07;;;;;;;7.17;6.83;;;21.80;99.90;;;;;;5169749;27;20797;-68
2023/10/08 07:20:38;;;;;;;7.63;6.97;;;21.80;99.90;;;;;;5155486;27;20859;-68
2023/10/08 07:23:12;;;;;;;6.53;6.30;;;21.80;99.90;;;;;;5147952;27;20438;-68
2023/10/08 07:25:42;;;;;;;7.40;7.00;;;21.80;99.90;;;;;;5155661;27;20946;-68
2023/10/08 07:28:12;;;;;;;8.40;7.80;;;21.80;99.90;;;;;;5155959;27;20471;-68
2023/10/08 07:30:44;;;;;;;7.40;7.10;;;21.80;99.90;;;;;;5155005;27;20448;-69
2023/10/08 07:33:17;;;;;;;9.33;8.67;;;21.80;99.90;;;;;;5154695;27;20479;-69
2023/10/08 07:35:51;;;;;;;7.07;6.77;;;21.80;99.90;;;;;;5155461;27;20831;-68
2023/10/08 07:38:18;;;;;;;7.60;7.00;;;21.80;99.90;;;;;;5155558;27;20459;-66
2023/10/08 07:40:46;;;;;;;7.37;6.97;;;21.80;99.90;;;;;;5154858;27;20540;-65
2023/10/08 07:43:13;;;;;;;19.98;19.08;;;21.80;99.90;;;;;;5154958;27;20470;-68
2023/10/08 07:45:45;;;;;;;20.97;20.10;;;21.80;99.90;;;;;;5155453;27;20222;-70
2023/10/08 07:48:14;;;;;;;23.47;22.13;;;21.90;99.90;;;;;;5155611;27;20492;-71
2023/10/08 07:50:45;;;;;;;21.33;20.53;;;21.80;99.90;;;;;;5155279;27;20479;-71
2023/10/08 07:53:17;;;;;;;23.50;22.30;;;21.80;99.90;;;;;;5155810;27;20463;-71
2023/10/08 07:55:49;;;;;;;21.90;21.20;;;21.80;99.90;;;;;;5156441;27;20462;-73
2023/10/08 07:58:17;;;;;;;22.50;21.70;;;21.80;99.90;;;;;;5154959;27;20532;-72
2023/10/08 08:00:51;;;;;;;22.40;21.60;;;21.90;99.90;;;;;;5154646;27;20460;-73
2023/10/08 08:03:21;;;;;;;18.53;17.73;;;21.80;99.90;;;;;;5156507;27;20507;-72
2023/10/08 08:05:52;;;;;;;19.63;18.73;;;21.80;99.90;;;;;;5154851;27;20511;-70
2023/10/08 08:08:22;;;;;;;20.87;20.07;;;21.80;99.90;;;;;;5154703;27;20479;-68
2023/10/08 08:10:57;;;;;;;21.43;20.53;;;21.90;99.90;;;;;;5154922;27;20440;-70
2023/10/08 08:13:27;;;;;;;19.87;19.07;;;21.90;99.90;;;;;;5154267;27;20965;-71
2023/10/08 08:15:58;;;;;;;19.90;19.20;;;21.90;99.90;;;;;;5155052;27;20463;-69
2023/10/08 08:18:32;;;;;;;20.40;19.70;;;21.90;99.90;;;;;;5154973;27;20432;-68
2023/10/08 08:21:02;;;;;;;20.43;19.67;;;21.90;99.90;;;;;;5154744;27;20446;-68
2023/10/08 08:23:30;;;;;;;21.57;20.77;;;22.00;99.90;;;;;;5154857;27;20440;-68
2023/10/08 08:26:11;;;;;;;20.63;19.73;;;22.00;99.90;;;;;;5154711;27;20918;-68
2023/10/08 08:28:39;;;;;;;20.53;19.73;;;22.00;99.90;;;;;;5154265;27;20471;-68
2023/10/08 08:31:13;;;;;;;20.83;19.93;;;22.00;99.90;;;;;;5145437;27;20466;-68
2023/10/08 08:33:53;;;;;;;22.03;20.77;;;22.00;99.90;;;;;;5154315;27;20440;-68
2023/10/08 08:36:21;;;;;;;23.23;21.63;;;22.00;99.90;;;;;;5154800;27;20519;-67
2023/10/08 08:38:47;;;;;;;14.33;13.10;;;22.00;99.90;;;;;;5154139;27;20493;-67
2023/10/08 08:41:18;;;;;;;17.00;14.53;;;22.10;99.90;;;;;;5154039;27;20467;-68
2023/10/08 08:43:48;;;;;;;20.57;14.50;;;22.10;99.90;;;;;;5154244;27;20807;-68
2023/10/08 08:46:15;;;;;;;32.10;17.70;;;22.00;99.90;;;;;;5154215;27;20452;-69
2023/10/08 08:48:44;;;;;;;37.87;14.10;;;22.00;99.90;;;;;;5153754;27;20557;-65
2023/10/08 08:51:13;;;;;;;17.93;16.20;;;22.00;99.90;;;;;;5154325;27;20432;-66
2023/10/08 08:53:40;;;;;;;19.97;14.00;;;22.00;99.90;;;;;;5153820;27;20458;-65
2023/10/08 08:56:10;;;;;;;23.20;14.70;;;22.00;99.90;;;;;;5153846;27;20908;-69
2023/10/08 08:58:39;;;;;;;19.87;14.37;;;22.00;99.90;;;;;;5153987;27;20787;-67
2023/10/08 09:01:12;;;;;;;15.10;13.30;;;22.00;99.90;;;;;;5145871;27;20444;-67
2023/10/08 09:03:39;;;;;;;26.20;15.47;;;22.00;99.90;;;;;;5153737;27;20451;-68
2023/10/08 09:06:06;;;;;;;22.47;12.87;;;22.00;99.90;;;;;;5152974;27;21008;-68
2023/10/08 09:08:37;;;;;;;19.07;13.80;;;22.10;99.90;;;;;;5153721;27;20503;-66
2023/10/08 09:11:05;;;;;;;17.40;14.00;;;22.10;99.90;;;;;;5153828;27;20467;-67
2023/10/08 09:13:34;;;;;;;15.80;12.10;;;22.10;99.90;;;;;;5153622;27;20442;-67
2023/10/08 09:16:09;;;;;;;14.40;13.17;;;22.10;99.90;;;;;;5153623;27;20478;-67
2023/10/08 09:18:36;;;;;;;20.90;15.73;;;22.10;99.90;;;;;;5153563;27;20470;-67
2023/10/08 09:21:11;;;;;;;19.73;14.00;;;22.10;99.90;;;;;;5153672;27;20470;-67
2023/10/08 09:23:47;;;;;;;16.93;15.43;;;22.10;99.90;;;;;;5153206;27;20479;-67
2023/10/08 09:26:14;;;;;;;16.23;14.80;;;22.10;99.90;;;;;;5146205;27;20455;-67
2023/10/08 09:28:46;;;;;;;20.43;14.67;;;22.10;99.90;;;;;;5153433;27;20483;-66
2023/10/08 09:31:17;;;;;;;14.83;13.57;;;22.20;99.90;;;;;;5153593;27;20472;-66
2023/10/08 09:33:44;;;;;;;15.20;14.00;;;22.10;99.90;;;;;;5153119;27;20442;-67
2023/10/08 09:36:18;;;;;;;17.30;15.70;;;22.10;99.90;;;;;;5153403;27;20540;-68
2023/10/08 09:38:48;;;;;;;18.70;15.40;;;22.10;99.90;;;;;;5153530;27;20786;-68
2023/10/08 09:41:15;;;;;;;12.97;12.03;;;22.10;99.90;;;;;;5153666;27;20436;-69
2023/10/08 09:43:45;;;;;;;13.37;12.37;;;22.10;99.90;;;;;;5152607;27;20483;-68
2023/10/08 09:46:20;;;;;;;15.67;14.13;;;22.20;99.90;;;;;;5153146;27;20462;-69
2023/10/08 09:48:52;;;;;;;15.43;13.90;;;22.20;99.90;;;;;;5153280;27;20514;-68
2023/10/08 09:51:20;;;;;;;15.57;14.13;;;22.20;99.90;;;;;;5152801;27;20543;-69
2023/10/08 09:53:59;;;;;;;16.00;14.30;;;22.20;99.90;;;;;;5152975;27;20475;-65
2023/10/08 09:56:31;;;;;;;14.17;12.93;;;22.20;99.90;;;;;;5153185;27;20443;-65
2023/10/08 09:59:03;;;;;;;17.20;14.57;;;22.20;99.90;;;;;;5152722;27;20463;-65
2023/10/08 10:01:41;;;;;;;19.20;14.20;;;22.10;99.90;;;;;;5152565;27;20815;-65
2023/10/08 10:04:11;;;;;;;14.93;13.40;;;22.10;99.90;;;;;;5144549;27;20903;-65
2023/10/08 10:06:40;;;;;;;17.40;15.93;;;22.00;99.90;;;;;;5153040;27;20934;-67
2023/10/08 10:09:17;;;;;;;16.33;14.83;;;22.10;99.90;;;;;;5144553;27;20530;-69
2023/10/08 10:11:50;;;;;;;14.97;12.97;;;22.10;99.90;;;;;;5152919;27;20710;-68
2023/10/08 10:14:22;;;;;;;14.57;12.93;;;22.10;99.90;;;;;;5152883;27;20471;-68
2023/10/08 10:17:10;;;;;;;13.40;12.23;;;22.10;99.90;;;;;;5152995;27;20431;-69
2023/10/08 10:19:45;;;;;;;14.00;12.90;;;22.20;99.90;;;;;;5153054;27;20440;-70
2023/10/08 10:22:19;;;;;;;13.73;12.57;;;22.20;99.90;;;;;;5150715;27;20790;-69
2023/10/08 10:24:50;;;;;;;13.60;12.77;;;22.20;99.90;;;;;;5130973;27;20993;-69
2023/10/08 10:27:19;;;;;;;15.70;14.20;;;22.20;99.90;;;;;;5153173;27;20463;-68
2023/10/08 10:29:50;;;;;;;14.20;12.87;;;22.20;99.90;;;;;;5152304;27;20499;-69
2023/10/08 10:32:21;;;;;;;13.97;12.67;;;22.20;99.90;;;;;;5135501;27;20840;-68
2023/10/08 10:34:51;;;;;;;14.47;12.97;;;22.20;99.90;;;;;;5154883;27;20586;-68
2023/10/08 10:37:22;;;;;;;13.90;12.33;;;22.20;99.90;;;;;;5154504;27;20439;-68
2023/10/08 10:39:59;;;;;;;12.87;11.80;;;22.20;99.90;;;;;;5152329;27;20451;-67
2023/10/08 10:42:42;;;;;;;14.10;13.10;;;22.20;99.90;;;;;;5152796;27;20522;-67
2023/10/08 10:45:34;;;;;;;15.37;13.33;;;22.20;99.90;;;;;;5144061;27;20464;-67
2023/10/08 10:48:13;;;;;;;17.63;13.73;;;22.10;99.90;;;;;;5152483;27;20440;-66
2023/10/08 10:50:48;;;;;;;15.07;13.83;;;22.10;99.90;;;;;;5152561;27;20439;-66
2023/10/08 10:53:18;;;;;;;16.93;15.93;;;22.10;99.90;;;;;;5144763;27;20443;-67
2023/10/08 10:55:58;;;;;;;14.97;13.57;;;22.10;99.90;;;;;;5155911;27;20467;-66
2023/10/08 10:58:38;;;;;;;14.40;13.10;;;22.10;99.90;;;;;;5155622;27;20848;-66
2023/10/08 11:01:15;;;;;;;15.20;14.10;;;22.10;99.90;;;;;;5156159;27;20443;-66
2023/10/08 11:03:48;;;;;;;14.80;13.80;;;22.10;99.90;;;;;;5156103;27;20507;-66
2023/10/08 11:06:22;;;;;;;15.30;14.03;;;22.00;99.90;;;;;;5147536;27;20469;-66
2023/10/08 11:08:52;;;;;;;14.30;12.87;;;22.00;99.90;;;;;;5138451;27;20467;-67
2023/10/08 11:11:20;;;;;;;15.50;13.93;;;22.00;99.90;;;;;;5136831;27;20447;-66
2023/10/08 11:13:54;;;;;;;14.10;12.67;;;22.00;99.90;;;;;;5155804;27;20432;-66
2023/10/08 11:16:25;;;;;;;14.30;13.00;;;22.00;99.90;;;;;;5155950;27;20474;-66
2023/10/08 11:18:57;;;;;;;13.97;12.93;;;22.00;99.90;;;;;;5137937;27;21166;-67
2023/10/08 11:21:31;;;;;;;16.47;14.93;;;22.00;99.90;;;;;;5156061;27;20447;-67
2023/10/08 11:23:59;;;;;;;15.97;14.80;;;22.00;99.90;;;;;;5155689;27;20506;-67
2023/10/08 11:26:38;;;;;;;16.63;15.13;;;22.00;99.90;;;;;;5155912;27;20446;-66
2023/10/08 11:29:14;;;;;;;15.17;14.10;;;22.00;99.90;;;;;;5155589;27;20479;-67
2023/10/08 11:31:53;;;;;;;17.63;16.13;;;22.00;99.90;;;;;;5155760;27;20431;-66
2023/10/08 11:34:24;;;;;;;17.67;16.17;;;22.00;99.90;;;;;;5148030;27;20984;-66
2023/10/08 11:36:55;;;;;;;15.13;14.10;;;22.00;99.90;;;;;;5155478;27;20969;-66
2023/10/08 11:39:30;;;;;;;16.67;15.37;;;22.00;99.90;;;;;;5155651;27;20431;-67
2023/10/08 11:42:25;;;;;;;14.57;13.57;;;22.00;99.90;;;;;;5155553;27;20471;-66
2023/10/08 11:44:59;;;;;;;15.30;14.30;;;22.00;99.90;;;;;;5155194;27;20882;-67
2023/10/08 11:47:35;;;;;;;15.03;14.03;;;22.00;99.90;;;;;;5155461;27;20443;-66
2023/10/08 11:50:17;;;;;;;15.83;14.80;;;22.00;99.90;;;;;;5155237;27;20483;-66
2023/10/08 11:52:49;;;;;;;15.40;14.40;;;22.00;99.90;;;;;;5155045;27;20531;-66
2023/10/08 11:55:35;;;;;;;15.67;14.73;;;22.00;99.90;;;;;;5147075;27;20547;-66
2023/10/08 11:58:09;;;;;;;15.70;14.57;;;22.00;99.90;;;;;;5154710;27;20444;-66
2023/10/08 12:00:43;;;;;;;14.97;13.97;;;22.00;99.90;;;;;;5155243;27;20435;-66
2023/10/08 12:03:11;;;;;;;14.90;13.90;;;22.00;99.90;;;;;;5154892;27;20499;-67
2023/10/08 12:05:47;;;;;;;15.17;14.10;;;22.00;99.90;;;;;;5154839;27;20451;-67
2023/10/08 12:08:14;;;;;;;15.13;14.00;;;22.00;99.90;;;;;;5146530;27;20471;-67
2023/10/08 12:10:43;;;;;;;15.30;14.30;;;21.90;99.90;;;;;;5154873;27;20498;-67
2023/10/08 12:13:11;;;;;;;15.67;14.77;;;22.00;99.90;;;;;;5154505;27;20817;-67
2023/10/08 12:15:40;;;;;;;15.50;14.10;;;21.90;99.90;;;;;;5154920;27;20871;-66
2023/10/08 12:18:15;;;;;;;15.33;14.03;;;21.90;99.90;;;;;;5155127;27;20946;-66
2023/10/08 12:20:47;;;;;;;15.70;14.60;;;21.90;99.90;;;;;;5154788;27;20446;-66
2023/10/08 12:23:24;;;;;;;14.20;13.40;;;21.90;99.90;;;;;;5146166;27;20435;-66
2023/10/08 12:25:52;;;;;;;14.60;13.47;;;21.90;99.90;;;;;;5154581;27;20551;-66
2023/10/08 12:28:19;;;;;;;15.80;14.53;;;21.90;99.90;;;;;;5154513;27;20931;-66
2023/10/08 12:30:49;;;;;;;16.80;15.37;;;21.90;99.90;;;;;;5154576;27;20517;-67
2023/10/08 12:33:16;;;;;;;15.17;13.70;;;21.90;99.90;;;;;;5154383;27;20439;-66
2023/10/08 12:35:45;;;;;;;16.80;15.20;;;21.90;99.90;;;;;;5154472;27;20456;-66
2023/10/08 12:38:13;;;;;;;14.77;13.37;;;21.90;99.90;;;;;;5154394;27;20507;-67
2023/10/08 12:40:52;;;;;;;14.13;13.17;;;21.90;99.90;;;;;;5154327;27;20535;-67
2023/10/08 12:43:20;;;;;;;15.47;14.37;;;21.90;99.90;;;;;;5146285;27;20447;-67
2023/10/08 12:45:51;;;;;;;14.10;13.10;;;21.90;99.90;;;;;;5154267;27;20558;-66
2023/10/08 12:48:20;;;;;;;16.40;15.10;;;21.90;99.90;;;;;;5146300;27;20447;-66
2023/10/08 12:50:53;;;;;;;14.33;13.30;;;21.90;99.90;;;;;;5154148;27;20985;-67
2023/10/08 12:53:23;;;;;;;14.70;13.73;;;21.90;99.90;;;;;;5146125;27;20523;-66
2023/10/08 12:55:53;;;;;;;16.23;15.13;;;21.90;99.90;;;;;;5154073;27;20764;-66
2023/10/08 12:58:25;;;;;;;15.53;14.50;;;21.90;99.90;;;;;;5154085;27;20436;-66
2023/10/08 13:00:57;;;;;;;15.03;13.83;;;21.80;99.90;;;;;;5153842;27;20444;-66
2023/10/08 13:03:25;;;;;;;14.90;13.70;;;21.90;99.90;;;;;;5153869;27;20474;-67
2023/10/08 13:05:53;;;;;;;14.30;13.20;;;21.80;99.90;;;;;;5153590;27;20973;-66
2023/10/08 13:08:21;;;;;;;13.40;12.60;;;21.90;99.90;;;;;;5153736;27;20443;-66
2023/10/08 13:10:48;;;;;;;13.30;12.30;;;21.90;99.90;;;;;;5153678;27;20507;-67
2023/10/08 13:13:15;;;;;;;14.40;13.07;;;21.90;99.90;;;;;;5145016;27;20468;-66
2023/10/08 13:15:42;;;;;;;15.47;14.27;;;21.90;99.90;;;;;;5153514;27;20484;-67
2023/10/08 13:18:09;;;;;;;15.40;14.30;;;21.90;99.90;;;;;;5153063;27;20526;-66
2023/10/08 13:20:37;;;;;;;14.43;13.40;;;21.90;99.90;;;;;;5153624;27;20455;-66